createdAt,value
2018-03-29T00:01:54.328Z,96195.99
2018-03-29T00:04:21.833Z,96204.57
2018-03-29T00:06:49.545Z,96208.17
2018-03-29T00:09:17.061Z,96209.47
2018-03-29T00:11:44.585Z,96208.64
2018-03-29T00:14:12.332Z,96217.46
2018-03-29T00:16:39.829Z,96222.13
2018-03-29T00:19:07.332Z,96219.34
2018-03-29T00:21:35.201Z,96226.58
2018-03-29T00:24:02.766Z,96223.61
2018-03-29T00:26:30.277Z,96234.90
2018-03-29T00:28:57.981Z,96223.88
2018-03-29T00:31:25.481Z,96227.80
2018-03-29T00:33:52.991Z,96228.37
2018-03-29T00:36:20.542Z,96230.41
2018-03-29T00:38:48.045Z,96242.97
2018-03-29T00:41:15.554Z,96239.86
2018-03-29T00:43:43.246Z,96256.97
2018-03-29T00:46:10.754Z,96239.62
2018-03-29T00:48:38.257Z,96244.98
2018-03-29T00:51:05.813Z,96247.16
2018-03-29T00:53:45.242Z,96252.95
2018-03-29T00:56:12.779Z,96268.53
2018-03-29T00:58:40.296Z,96273.33
2018-03-29T01:01:07.802Z,96276.52
2018-03-29T01:03:35.338Z,96285.89
2018-03-29T01:06:02.840Z,96294.25
2018-03-29T01:08:33.108Z,96288.34
2018-03-29T01:11:00.841Z,96294.81
2018-03-29T01:13:28.349Z,96297.06
2018-03-29T01:15:55.873Z,96306.94
2018-03-29T01:18:23.417Z,96306.36
2018-03-29T01:20:50.925Z,96308.61
2018-03-29T01:23:18.448Z,96308.19
2018-03-29T01:25:46.186Z,96313.27
2018-03-29T01:28:13.710Z,96299.19
2018-03-29T01:30:41.217Z,96302.25
2018-03-29T01:33:08.766Z,96296.17
2018-03-29T01:35:36.290Z,96295.13
2018-03-29T01:38:03.797Z,96297.90
2018-03-29T01:40:31.523Z,96301.95
2018-03-29T01:42:59.029Z,96309.22
2018-03-29T01:45:26.538Z,96306.94
2018-03-29T01:47:54.091Z,96302.55
2018-03-29T01:50:21.602Z,96296.88
2018-03-29T01:52:49.114Z,96298.64
2018-03-29T01:55:16.653Z,96306.02
2018-03-29T01:57:44.162Z,96300.81
2018-03-29T02:00:11.665Z,96306.08
2018-03-29T02:02:39.380Z,96307.74
2018-03-29T02:05:06.889Z,96305.05
2018-03-29T02:07:34.410Z,96306.71
2018-03-29T02:10:02.058Z,96312.85
2018-03-29T02:12:29.574Z,96311.92
2018-03-29T02:14:57.173Z,96318.81
2018-03-29T02:17:24.829Z,96325.30
2018-03-29T02:19:52.330Z,96323.16
2018-03-29T02:22:19.837Z,96331.77
2018-03-29T02:24:47.400Z,96334.80
2018-03-29T02:27:14.905Z,96335.83
2018-03-29T02:29:42.418Z,96334.59
2018-03-29T02:32:09.951Z,96335.16
2018-03-29T02:34:37.471Z,96333.39
2018-03-29T02:37:05.402Z,96332.13
2018-03-29T02:39:32.906Z,96337.13
2018-03-29T02:42:00.413Z,96339.45
2018-03-29T02:44:27.962Z,96350.95
2018-03-29T02:46:55.475Z,96350.08
2018-03-29T02:49:23.209Z,96338.64
2018-03-29T02:51:50.717Z,96343.39
2018-03-29T02:54:18.236Z,96344.13
2018-03-29T02:56:45.800Z,96345.41
2018-03-29T02:59:13.309Z,96342.08
2018-03-29T03:01:40.850Z,96349.96
2018-03-29T03:04:08.362Z,96354.11
2018-03-29T03:06:35.897Z,96353.65
2018-03-29T03:09:03.429Z,96357.87
2018-03-29T03:11:30.935Z,96362.08
2018-03-29T03:13:58.501Z,96363.48
2018-03-29T03:16:26.006Z,96363.20
2018-03-29T03:18:53.510Z,96358.73
2018-03-29T03:21:21.062Z,96362.30
2018-03-29T03:23:48.578Z,96368.63
2018-03-29T03:26:16.118Z,96365.77
2018-03-29T03:28:43.622Z,96363.83
2018-03-29T03:31:11.127Z,96364.70
2018-03-29T03:33:38.676Z,96363.52
2018-03-29T03:36:06.180Z,96366.75
2018-03-29T03:38:33.993Z,96366.77
2018-03-29T03:41:01.503Z,96370.58
2018-03-29T03:43:29.010Z,96366.03
2018-03-29T03:45:56.550Z,96376.88
2018-03-29T03:48:24.658Z,96374.05
2018-03-29T03:50:52.366Z,96375.52
2018-03-29T03:53:19.887Z,96371.76
2018-03-29T03:55:47.393Z,96378.84
2018-03-29T03:58:14.922Z,96369.92
2018-03-29T04:00:42.430Z,96377.78
2018-03-29T04:03:10.182Z,96380.34
2018-03-29T04:05:37.687Z,96381.06
2018-03-29T04:08:05.246Z,96373.78
2018-03-29T04:10:32.783Z,96371.64
2018-03-29T04:13:00.761Z,96373.23
2018-03-29T04:15:28.505Z,96385.12
2018-03-29T04:17:56.007Z,96373.52
2018-03-29T04:20:23.525Z,96381.61
2018-03-29T04:22:51.062Z,96373.80
2018-03-29T04:25:18.580Z,96380.70
2018-03-29T04:27:46.301Z,96382.22
2018-03-29T04:30:13.810Z,96387.47
2018-03-29T04:32:41.314Z,96386.95
2018-03-29T04:35:08.845Z,96392.41
2018-03-29T04:37:36.354Z,96397.38
2018-03-29T04:40:04.094Z,96400.62
2018-03-29T04:42:31.601Z,96408.53
2018-03-29T04:44:59.106Z,96404.34
2018-03-29T04:47:26.635Z,96395.23
2018-03-29T04:49:54.216Z,96396.94
2018-03-29T04:52:21.770Z,96396.58
2018-03-29T04:54:49.375Z,96408.61
2018-03-29T04:57:16.878Z,96409.23
2018-03-29T04:59:44.413Z,96406.64
2018-03-29T05:02:11.925Z,96399.38
2018-03-29T05:04:39.607Z,96401.42
2018-03-29T05:07:07.121Z,96405.31
2018-03-29T05:09:34.629Z,96398.34
2018-03-29T05:12:02.156Z,96409.06
2018-03-29T05:14:29.663Z,96414.92
2018-03-29T05:16:57.690Z,96417.33
2018-03-29T05:19:26.191Z,96418.37
2018-03-29T05:21:54.673Z,96419.86
2018-03-29T05:24:22.201Z,96427.11
2018-03-29T05:26:49.713Z,96431.84
2018-03-29T05:29:17.530Z,96427.81
2018-03-29T05:31:45.041Z,96432.75
2018-03-29T05:34:12.545Z,96433.58
2018-03-29T05:36:40.115Z,96445.52
2018-03-29T05:39:07.813Z,96449.19
2018-03-29T05:41:35.537Z,96453.21
2018-03-29T05:44:03.047Z,96454.12
2018-03-29T05:46:30.558Z,96458.83
2018-03-29T05:48:58.178Z,96455.83
2018-03-29T05:51:25.686Z,96462.95
2018-03-29T05:53:53.637Z,96459.59
2018-03-29T05:56:21.148Z,96460.95
2018-03-29T05:58:48.679Z,96465.06
2018-03-29T06:01:16.213Z,96462.80
2018-03-29T06:03:43.713Z,96472.22
2018-03-29T06:06:11.355Z,96473.91
2018-03-29T06:08:38.862Z,96466.22
2018-03-29T06:11:06.883Z,96474.33
2018-03-29T06:13:34.421Z,96476.53
2018-03-29T06:16:04.645Z,96471.83
2018-03-29T06:18:33.081Z,96480.28
2018-03-29T06:21:00.957Z,96476.66
2018-03-29T06:23:28.745Z,96476.66
2018-03-29T06:25:56.258Z,96483.13
2018-03-29T06:28:23.793Z,96487.37
2018-03-29T06:30:51.329Z,96482.72
2018-03-29T06:33:18.835Z,96485.33
2018-03-29T06:35:47.186Z,96486.58
2018-03-29T06:38:14.714Z,96486.14
2018-03-29T06:40:42.402Z,96481.16
2018-03-29T06:43:09.962Z,96490.33
2018-03-29T06:45:37.461Z,96488.83
2018-03-29T06:48:05.195Z,96494.61
2018-03-29T06:50:33.501Z,96491.14
2018-03-29T06:53:01.027Z,96489.86
2018-03-29T06:55:29.699Z,96485.90
2018-03-29T06:57:57.341Z,96487.48
2018-03-29T07:00:25.205Z,96477.67
2018-03-29T07:02:53.021Z,96475.11
2018-03-29T07:05:20.534Z,96483.27
2018-03-29T07:07:48.115Z,96485.85
2018-03-29T07:10:15.646Z,96481.55
2018-03-29T07:12:43.358Z,96479.91
2018-03-29T07:15:10.874Z,96484.44
2018-03-29T07:17:38.396Z,96479.20
2018-03-29T07:20:05.933Z,96484.84
2018-03-29T07:22:33.456Z,96482.25
2018-03-29T07:25:01.016Z,96476.55
2018-03-29T07:27:28.525Z,96476.23
2018-03-29T07:29:56.034Z,96489.45
2018-03-29T07:32:23.577Z,96482.08
2018-03-29T07:34:51.170Z,96491.09
2018-03-29T07:37:19.786Z,96476.12
2018-03-29T07:39:47.825Z,96471.53
2018-03-29T07:42:15.331Z,96467.48
2018-03-29T07:44:42.867Z,96469.41
2018-03-29T07:47:10.389Z,96460.53
2018-03-29T07:49:37.942Z,96457.54
2018-03-29T07:52:05.463Z,96454.34
2018-03-29T07:54:32.985Z,96440.47
2018-03-29T07:57:00.533Z,96442.80
2018-03-29T07:59:28.504Z,96454.88
2018-03-29T08:01:56.073Z,96453.27
2018-03-29T08:04:23.586Z,96452.89
2018-03-29T08:06:51.131Z,96467.89
2018-03-29T08:09:18.679Z,96471.76
2018-03-29T08:11:46.300Z,96474.25
2018-03-29T08:14:14.148Z,96469.84
2018-03-29T08:16:41.729Z,96479.75
2018-03-29T08:19:09.241Z,96476.66
2018-03-29T08:21:36.785Z,96482.33
2018-03-29T08:24:04.306Z,96482.78
2018-03-29T08:26:32.044Z,96489.98
2018-03-29T08:28:59.611Z,96483.30
2018-03-29T08:31:27.096Z,96487.61
2018-03-29T08:33:54.634Z,96490.09
2018-03-29T08:36:22.587Z,96493.04
2018-03-29T08:38:50.452Z,96489.69
2018-03-29T08:41:17.967Z,96484.28
2018-03-29T08:43:45.720Z,96490.84
2018-03-29T08:46:13.263Z,96487.91
2018-03-29T08:48:40.815Z,96485.47
2018-03-29T08:51:08.534Z,96481.41
2018-03-29T08:53:36.095Z,96487.19
2018-03-29T08:56:03.700Z,96486.05
2018-03-29T08:58:31.675Z,96487.11
2018-03-29T09:00:59.185Z,96483.94
2018-03-29T09:03:26.889Z,96484.58
2018-03-29T09:05:54.441Z,96489.00
2018-03-29T09:08:22.124Z,96480.27
2018-03-29T09:10:49.653Z,96485.05
2018-03-29T09:13:17.172Z,96480.91
2018-03-29T09:15:44.993Z,96492.83
2018-03-29T09:18:12.621Z,96488.52
2018-03-29T09:20:40.394Z,96487.93
2018-03-29T09:23:08.055Z,96489.09
2018-03-29T09:25:36.005Z,96487.66
2018-03-29T09:28:03.546Z,96486.31
2018-03-29T09:30:31.114Z,96490.80
2018-03-29T09:32:58.666Z,96493.22
2018-03-29T09:35:26.289Z,96493.00
2018-03-29T09:37:53.792Z,96496.72
2018-03-29T09:40:21.348Z,96498.01
2018-03-29T09:42:48.868Z,96494.87
2018-03-29T09:45:16.662Z,96495.52
2018-03-29T09:47:44.242Z,96499.64
2018-03-29T09:50:11.697Z,96502.55
2018-03-29T09:52:39.234Z,96498.73
2018-03-29T09:55:06.750Z,96497.99
2018-03-29T09:57:35.245Z,96491.12
2018-03-29T10:00:02.770Z,96496.73
2018-03-29T10:02:32.030Z,96484.25
2018-03-29T10:05:03.014Z,96471.05
2018-03-29T10:07:34.410Z,96479.66
2018-03-29T10:10:02.053Z,96468.80
2018-03-29T10:12:29.565Z,96455.81
2018-03-29T10:14:57.071Z,96450.47
2018-03-29T10:17:24.605Z,96443.48
2018-03-29T10:19:52.147Z,96441.59
2018-03-29T10:22:20.263Z,96436.53
2018-03-29T10:24:47.935Z,96433.93
2018-03-29T10:27:15.438Z,96428.19
2018-03-29T10:29:43.343Z,96431.38
2018-03-29T10:32:11.938Z,96429.28
2018-03-29T10:34:39.554Z,96431.97
2018-03-29T10:37:07.062Z,96423.50
2018-03-29T10:39:34.579Z,96427.03
2018-03-29T10:42:02.193Z,96427.26
2018-03-29T10:44:29.709Z,96426.56
2018-03-29T10:46:57.595Z,96418.87
2018-03-29T10:49:25.207Z,96422.44
2018-03-29T10:51:52.964Z,96421.31
2018-03-29T10:54:20.524Z,96414.16
2018-03-29T10:56:48.125Z,96421.16
2018-03-29T10:59:15.696Z,96422.66
2018-03-29T11:01:43.436Z,96429.03
2018-03-29T11:04:10.962Z,96431.52
2018-03-29T11:06:38.555Z,96426.64
2018-03-29T11:09:06.076Z,96432.13
2018-03-29T11:11:33.784Z,96442.42
2018-03-29T11:14:01.374Z,96438.10
2018-03-29T11:16:29.110Z,96434.59
2018-03-29T11:18:56.667Z,96432.94
2018-03-29T11:21:24.193Z,96436.77
2018-03-29T11:23:51.978Z,96428.31
2018-03-29T11:26:19.489Z,96428.84
2018-03-29T11:28:47.075Z,96436.25
2018-03-29T11:31:14.637Z,96421.03
2018-03-29T11:33:42.148Z,96425.18
2018-03-29T11:36:10.014Z,96417.22
2018-03-29T11:38:37.661Z,96414.06
2018-03-29T11:41:05.411Z,96416.81
2018-03-29T11:43:33.086Z,96419.81
2018-03-29T11:46:00.982Z,96413.28
2018-03-29T11:48:28.825Z,96407.94
2018-03-29T11:50:56.487Z,96406.42
2018-03-29T11:53:24.458Z,96402.03
2018-03-29T11:55:52.140Z,96403.59
2018-03-29T11:58:19.882Z,96405.75
2018-03-29T12:00:47.487Z,96406.13
2018-03-29T12:03:15.020Z,96412.28
2018-03-29T12:05:42.536Z,96406.20
2018-03-29T12:08:10.192Z,96408.20
2018-03-29T12:10:37.795Z,96415.17
2018-03-29T12:13:05.646Z,96407.41
2018-03-29T12:15:33.234Z,96405.16
2018-03-29T12:18:00.959Z,96402.66
2018-03-29T12:20:28.910Z,96394.80
2018-03-29T12:22:56.498Z,96401.56
2018-03-29T12:25:24.366Z,96394.22
2018-03-29T12:27:52.027Z,96392.56
2018-03-29T12:30:19.790Z,96388.24
2018-03-29T12:32:47.554Z,96392.34
2018-03-29T12:35:15.657Z,96388.73
2018-03-29T12:37:44.738Z,96386.30
2018-03-29T12:40:13.165Z,96392.15
2018-03-29T12:42:41.507Z,96393.19
2018-03-29T12:45:09.679Z,96392.16
2018-03-29T12:47:37.928Z,96388.73
2018-03-29T12:50:06.206Z,96385.81
2018-03-29T12:52:34.391Z,96386.61
2018-03-29T12:55:14.431Z,96390.62
2018-03-29T13:00:48.980Z,96389.94
2018-03-29T13:03:17.454Z,96392.97
2018-03-29T13:05:45.629Z,96393.98
2018-03-29T13:08:13.830Z,96398.80
2018-03-29T13:10:42.591Z,96398.47
2018-03-29T13:13:10.611Z,96396.13
2018-03-29T13:15:38.528Z,96393.17
2018-03-29T13:18:06.804Z,96389.38
2018-03-29T13:20:34.978Z,96388.20
2018-03-29T13:23:03.020Z,96383.31
2018-03-29T13:25:32.424Z,96387.80
2018-03-29T13:28:00.233Z,96390.24
2018-03-29T13:30:28.709Z,96390.21
2018-03-29T13:32:56.769Z,96382.97
2018-03-29T13:35:24.787Z,96378.83
2018-03-29T13:37:52.698Z,96382.43
2018-03-29T13:40:21.097Z,96376.72
2018-03-29T13:42:49.273Z,96374.84
2018-03-29T13:45:17.337Z,96381.02
2018-03-29T13:52:35.713Z,96369.89
2018-03-29T13:55:03.882Z,96369.16
2018-03-29T13:57:31.644Z,96365.70
2018-03-29T13:59:59.509Z,96365.30
2018-03-29T14:02:28.505Z,96367.48
2018-03-29T14:04:56.166Z,96361.35
2018-03-29T14:07:24.758Z,96353.69
2018-03-29T14:09:52.622Z,96353.70
2018-03-29T14:12:20.482Z,96356.08
2018-03-29T14:14:48.491Z,96361.98
2018-03-29T14:17:16.829Z,96355.78
2018-03-29T14:19:45.011Z,96359.07
2018-03-29T14:22:12.870Z,96356.66
2018-03-29T14:24:40.840Z,96365.08
2018-03-29T14:27:08.706Z,96354.06
2018-03-29T14:29:36.317Z,96356.74
2018-03-29T14:32:03.979Z,96359.00
2018-03-29T14:34:31.706Z,96359.06
2018-03-29T14:36:59.557Z,96366.25
2018-03-29T14:39:30.393Z,96358.34
2018-03-29T14:41:58.106Z,96357.48
2018-03-29T14:44:26.254Z,96354.66
2018-03-29T14:46:53.866Z,96350.77
2018-03-29T14:49:21.758Z,96348.08
2018-03-29T14:51:49.932Z,96346.38
2018-03-29T14:54:17.542Z,96349.20
2018-03-29T14:56:45.343Z,96354.67
2018-03-29T14:59:13.504Z,96346.20
2018-03-29T15:01:41.296Z,96350.09
2018-03-29T15:04:09.470Z,96348.22
2018-03-29T15:06:37.335Z,96344.17
2018-03-29T15:09:05.496Z,96344.98
2018-03-29T15:11:33.374Z,96344.92
2018-03-29T15:14:01.271Z,96351.05
2018-03-29T15:16:28.977Z,96348.58
2018-03-29T15:18:56.596Z,96356.48
2018-03-29T15:21:24.433Z,96354.02
2018-03-29T15:23:52.055Z,96350.14
2018-03-29T15:26:19.757Z,96352.30
2018-03-29T15:28:47.727Z,96345.79
2018-03-29T15:31:15.386Z,96343.74
2018-03-29T15:33:43.459Z,96352.27
2018-03-29T15:36:11.329Z,96345.08
2018-03-29T15:38:39.293Z,96356.75
2018-03-29T15:41:07.570Z,96353.01
2018-03-29T15:43:35.126Z,96350.45
2018-03-29T15:46:03.104Z,96345.87
2018-03-29T15:48:30.619Z,96348.40
2018-03-29T15:50:58.411Z,96345.56
2018-03-29T15:53:26.385Z,96343.81
2018-03-29T15:55:54.256Z,96347.84
2018-03-29T15:58:22.016Z,96345.45
2018-03-29T16:00:49.887Z,96341.68
2018-03-29T16:03:17.754Z,96346.56
2018-03-29T16:05:45.624Z,96344.50
2018-03-29T16:08:13.589Z,96342.94
2018-03-29T16:10:41.762Z,96349.34
2018-03-29T16:13:09.629Z,96351.59
2018-03-29T16:15:37.496Z,96355.84
2018-03-29T16:18:05.464Z,96358.86
2018-03-29T16:20:33.331Z,96358.72
2018-03-29T16:23:01.507Z,96363.32
2018-03-29T16:25:29.576Z,96355.98
2018-03-29T16:27:57.390Z,96361.11
2018-03-29T16:30:25.412Z,96361.74
2018-03-29T16:32:53.278Z,96362.64
2018-03-29T16:35:21.758Z,96373.08
2018-03-29T16:37:49.409Z,96375.58
2018-03-29T16:40:17.353Z,96374.16
2018-03-29T16:42:46.179Z,96377.72
2018-03-29T16:45:15.273Z,96378.61
2018-03-29T16:47:43.243Z,96379.84
2018-03-29T16:50:11.108Z,96392.84
2018-03-29T16:52:38.974Z,96393.79
2018-03-29T16:55:07.972Z,96388.25
2018-03-29T16:57:35.817Z,96393.90
2018-03-29T17:00:04.111Z,96397.75
2018-03-29T17:02:35.972Z,96401.30
2018-03-29T17:05:04.946Z,96404.00
2018-03-29T17:07:32.742Z,96399.70
2018-03-29T17:10:01.058Z,96406.08
2018-03-29T17:12:29.181Z,96406.47
2018-03-29T17:14:57.842Z,96411.02
2018-03-29T17:17:25.704Z,96413.02
2018-03-29T17:19:53.596Z,96417.80
2018-03-29T17:22:21.579Z,96422.81
2018-03-29T17:24:49.712Z,96424.84
2018-03-29T17:27:17.834Z,96423.95
2018-03-29T17:29:45.666Z,96429.00
2018-03-29T17:32:13.451Z,96420.84
2018-03-29T17:34:41.703Z,96421.59
2018-03-29T17:37:09.964Z,96421.92
2018-03-29T17:39:38.178Z,96423.34
2018-03-29T17:42:06.136Z,96424.55
2018-03-29T17:44:34.618Z,96426.16
2018-03-29T17:47:02.689Z,96428.08
2018-03-29T17:49:30.625Z,96421.12
2018-03-29T17:51:58.624Z,96425.97
2018-03-29T17:54:27.005Z,96430.97
2018-03-29T17:56:54.760Z,96417.75
2018-03-29T17:59:22.840Z,96423.56
2018-03-29T18:01:51.174Z,96427.47
2018-03-29T18:04:19.461Z,96435.55
2018-03-29T18:06:48.217Z,96440.03
2018-03-29T18:09:16.154Z,96435.66
2018-03-29T18:11:44.427Z,96433.13
2018-03-29T18:14:12.395Z,96436.47
2018-03-29T18:16:40.262Z,96426.08
2018-03-29T18:19:08.537Z,96431.16
2018-03-29T18:21:36.404Z,96435.07
2018-03-29T18:24:04.271Z,96432.94
2018-03-29T18:26:33.064Z,96442.48
2018-03-29T18:29:00.823Z,96449.09
2018-03-29T18:31:29.034Z,96451.05
2018-03-29T18:33:56.773Z,96451.22
2018-03-29T18:36:24.628Z,96451.47
2018-03-29T18:38:53.148Z,96455.34
2018-03-29T18:41:20.954Z,96449.81
2018-03-29T18:43:49.093Z,96445.12
2018-03-29T18:46:17.835Z,96450.30
2018-03-29T18:48:45.803Z,96452.19
2018-03-29T18:51:13.773Z,96452.07
2018-03-29T18:53:42.560Z,96449.97
2018-03-29T18:56:10.837Z,96445.24
2018-03-29T18:58:38.704Z,96448.82
2018-03-29T19:01:06.460Z,96448.21
2018-03-29T19:03:34.861Z,96448.11
2018-03-29T19:06:02.714Z,96444.17
2018-03-29T19:08:30.792Z,96447.70
2018-03-29T19:10:59.369Z,96449.45
2018-03-29T19:13:27.336Z,96450.50
2018-03-29T19:15:56.231Z,96453.42
2018-03-29T19:18:24.095Z,96458.54
2018-03-29T19:20:52.984Z,96457.64
2018-03-29T19:23:20.842Z,96452.20
2018-03-29T19:25:48.719Z,96457.15
2018-03-29T19:28:16.724Z,96457.02
2018-03-29T19:30:44.644Z,96460.52
2018-03-29T19:33:12.829Z,96470.32
2018-03-29T19:35:41.619Z,96475.31
2018-03-29T19:38:09.791Z,96474.42
2018-03-29T19:40:38.599Z,96479.45
2018-03-29T19:43:06.797Z,96475.38
2018-03-29T19:45:34.721Z,96481.94
2018-03-29T19:48:03.308Z,96479.05
2018-03-29T19:50:31.274Z,96481.45
2018-03-29T19:52:59.239Z,96482.66
2018-03-29T19:55:27.109Z,96472.72
2018-03-29T19:57:55.195Z,96476.70
2018-03-29T20:00:23.053Z,96480.18
2018-03-29T20:02:50.980Z,96473.92
2018-03-29T20:05:19.192Z,96479.80
2018-03-29T20:07:47.190Z,96482.44
2018-03-29T20:10:16.714Z,96489.22
2018-03-29T20:12:44.999Z,96490.33
2018-03-29T20:15:15.742Z,96492.61
2018-03-29T20:17:43.542Z,96495.98
2018-03-29T20:20:11.509Z,96486.41
2018-03-29T20:22:39.478Z,96496.21
2018-03-29T20:25:07.346Z,96493.59
2018-03-29T20:27:35.522Z,96501.18
2018-03-29T20:30:04.558Z,96501.75
2018-03-29T20:32:32.478Z,96498.98
2018-03-29T20:35:00.418Z,96490.16
2018-03-29T20:37:28.266Z,96494.56
2018-03-29T20:39:56.602Z,96490.78
2018-03-29T20:42:28.845Z,96495.95
2018-03-29T20:44:56.955Z,96490.14
2018-03-29T20:47:25.172Z,96492.77
2018-03-29T20:49:53.090Z,96495.80
2018-03-29T20:52:21.411Z,96488.62
2018-03-29T20:54:51.393Z,96489.58
2018-03-29T20:57:20.059Z,96479.01
2018-03-29T20:59:47.921Z,96468.98
2018-03-29T21:02:15.891Z,96471.83
2018-03-29T21:04:44.096Z,96467.35
2018-03-29T21:07:11.793Z,96467.46
2018-03-29T21:09:40.258Z,96466.70
2018-03-29T21:12:08.073Z,96472.48
2018-03-29T21:14:36.542Z,96475.23
2018-03-29T21:17:11.069Z,96468.30
2018-03-29T21:19:38.942Z,96466.93
2018-03-29T21:22:07.936Z,96469.56
2018-03-29T21:24:35.806Z,96467.56
2018-03-29T21:27:03.680Z,96471.95
2018-03-29T21:29:31.648Z,96475.65
2018-03-29T21:31:59.527Z,96486.36
2018-03-29T21:34:27.474Z,96486.95
2018-03-29T21:36:55.343Z,96486.45
2018-03-29T21:39:23.207Z,96495.03
2018-03-29T21:41:51.176Z,96482.91
2018-03-29T21:44:18.863Z,96485.30
2018-03-29T21:46:46.741Z,96486.88
2018-03-29T21:49:14.471Z,96492.00
2018-03-29T21:51:42.234Z,96477.30
2018-03-29T21:54:10.000Z,96476.94
2018-03-29T21:56:37.647Z,96475.67
2018-03-29T21:59:05.513Z,96477.97
2018-03-29T22:01:33.392Z,96471.70
2018-03-29T22:04:01.055Z,96476.65
2018-03-29T22:06:28.740Z,96473.27
2018-03-29T22:08:56.354Z,96477.88
2018-03-29T22:11:23.954Z,96495.39
2018-03-29T22:13:51.483Z,96498.42
2018-03-29T22:16:19.058Z,96501.61
2018-03-29T22:18:46.669Z,96503.52
2018-03-29T22:21:14.214Z,96501.46
2018-03-29T22:23:42.074Z,96500.54
2018-03-29T22:26:09.595Z,96493.76
2018-03-29T22:28:37.344Z,96493.27
2018-03-29T22:31:05.214Z,96498.03
2018-03-29T22:33:32.991Z,96498.43
2018-03-29T22:36:00.662Z,96498.69
2018-03-29T22:38:28.425Z,96506.64
2018-03-29T22:40:56.083Z,96508.06
2018-03-29T22:43:23.942Z,96515.17
2018-03-29T22:45:51.611Z,96513.96
2018-03-29T22:48:19.318Z,96522.73
2018-03-29T22:50:47.035Z,96522.76
2018-03-29T22:53:14.593Z,96520.31
2018-03-29T22:55:42.257Z,96519.70
2018-03-29T22:58:09.915Z,96518.07
2018-03-29T23:00:37.517Z,96514.13
2018-03-29T23:03:05.241Z,96512.48
2018-03-29T23:05:32.785Z,96503.88
2018-03-29T23:08:00.539Z,96502.16
2018-03-29T23:10:28.043Z,96500.57
2018-03-29T23:12:56.011Z,96497.34
2018-03-29T23:15:23.522Z,96495.72
2018-03-29T23:17:51.034Z,96494.43
2018-03-29T23:20:18.590Z,96487.60
2018-03-29T23:22:46.096Z,96485.85
2018-03-29T23:25:13.882Z,96474.60
2018-03-29T23:27:41.494Z,96481.75
2018-03-29T23:30:09.032Z,96480.17
2018-03-29T23:32:37.311Z,96467.41
2018-03-29T23:35:04.847Z,96465.15
2018-03-29T23:37:32.399Z,96469.42
2018-03-29T23:39:59.970Z,96458.20
2018-03-29T23:42:28.448Z,96450.91
2018-03-29T23:44:56.176Z,96456.02
2018-03-29T23:47:24.179Z,96448.48
2018-03-29T23:49:51.690Z,96448.85
2018-03-29T23:52:19.379Z,96441.37
2018-03-29T23:54:46.945Z,96431.69
2018-03-29T23:57:14.456Z,96439.47
2018-03-29T23:59:42.361Z,96438.62
